Time;durP1;ratioP1;P1;durP2;ratioP2;P2;SDS_P1;SDS_P2;PMS_P1;PMS_P2;Temp;Humidity;BMP_temperature;BMP_pressure;BME280_temperature;BME280_humidity;BME280_pressure;Samples;Min_cycle;Max_cycle;Signal;HPM_P1;HPM_P2
2021/04/06 00:01:59;;;;;;;;;;;;;;;4.27;48.97;100143.16;5058587;27;97869;-82
2021/04/06 00:04:27;;;;;;;;;;;;;;;4.80;47.96;100145.53;5058585;27;96800;-82
2021/04/06 00:06:54;;;;;;;;;;;;;;;4.88;47.72;100155.84;5048494;27;97499;-81
2021/04/06 00:09:25;;;;;;;;;;;;;;;5.08;47.13;100150.19;5059419;27;98941;-82
2021/04/06 00:11:52;;;;;;;;;;;;;;;4.93;47.14;100148.75;5069204;27;99828;-82
2021/04/06 00:14:20;;;;;;;;;;;;;;;4.53;48.19;100153.13;5062800;27;96738;-83
2021/04/06 00:16:48;;;;;;;;;;;;;;;4.72;48.10;100152.72;5066949;27;96782;-82
2021/04/06 00:19:15;;;;;;;;;;;;;;;5.05;47.55;100150.25;5052523;27;99993;-82
2021/04/06 00:21:45;;;;;;;;;;;;;;;4.94;47.82;100157.47;5061765;27;100058;-83
2021/04/06 00:24:13;;;;;;;;;;;;;;;5.02;47.82;100145.09;5055079;27;96933;-81
2021/04/06 00:26:44;;;;;;;;;;;;;;;4.77;47.77;100155.22;5062371;27;97154;-81
2021/04/06 00:29:11;;;;;;;;;;;;;;;4.68;48.83;100150.19;5057410;27;101985;-81
2021/04/06 00:31:41;;;;;;;;;;;;;;;5.03;48.29;100159.91;5060545;27;97686;-82
2021/04/06 00:34:08;;;;;;;;;;;;;;;4.69;48.15;100147.53;5064133;27;96950;-81
2021/04/06 00:36:35;;;;;;;;;;;;;;;4.49;49.46;100164.53;5064676;27;97032;-80
2021/04/06 00:39:01;;;;;;;;;;;;;;;5.09;48.38;100162.38;5056815;27;98825;-81
2021/04/06 00:41:27;;;;;;;;;;;;;;;4.73;48.94;100162.28;5049669;27;101229;-82
2021/04/06 00:43:53;;;;;;;;;;;;;;;4.65;48.67;100168.59;5059796;27;97192;-82
2021/04/06 00:46:20;;;;;;;;;;;;;;;4.76;48.74;100164.84;5057482;27;97087;-81
2021/04/06 00:48:49;;;;;;;;;;;;;;;4.69;49.16;100165.00;5058200;27;97745;-81
2021/04/06 00:51:16;;;;;;;;;;;;;;;4.62;49.43;100164.25;5046318;27;98157;-82
2021/04/06 00:53:48;;;;;;;;;;;;;;;4.53;49.45;100171.44;5052675;27;97195;-82
2021/04/06 00:56:16;;;;;;;;;;;;;;;4.58;49.21;100170.47;5054108;27;96879;-82
2021/04/06 00:58:42;;;;;;;;;;;;;;;4.65;49.13;100172.06;5050244;27;100721;-82
2021/04/06 01:01:09;;;;;;;;;;;;;;;4.88;48.92;100174.19;5045996;27;98942;-81
2021/04/06 01:03:37;;;;;;;;;;;;;;;4.77;49.46;100177.03;5051417;27;96884;-82
2021/04/06 01:06:07;;;;;;;;;;;;;;;4.70;48.92;100177.19;5055100;27;96955;-81
2021/04/06 01:08:33;;;;;;;;;;;;;;;4.67;49.76;100178.09;5054254;27;97606;-82
2021/04/06 01:11:00;;;;;;;;;;;;;;;4.55;49.79;100180.97;5052796;27;101087;-81
2021/04/06 01:13:27;;;;;;;;;;;;;;;4.64;49.89;100182.56;5046077;27;96902;-81
2021/04/06 01:15:53;;;;;;;;;;;;;;;4.45;50.59;100178.59;5046443;27;96945;-82
2021/04/06 01:18:19;;;;;;;;;;;;;;;4.05;51.22;100181.94;5048168;27;101858;-81
2021/04/06 01:20:45;;;;;;;;;;;;;;;4.11;52.12;100183.59;5051721;27;97943;-82
2021/04/06 01:23:14;;;;;;;;;;;;;;;4.38;51.40;100183.94;5050367;27;96662;-82
2021/04/06 01:25:43;;;;;;;;;;;;;;;4.32;51.84;100188.41;5061824;27;97033;-81
2021/04/06 01:28:10;;;;;;;;;;;;;;;4.44;51.14;100184.69;5057506;27;100817;-81
2021/04/06 01:30:45;;;;;;;;;;;;;;;4.62;50.68;100182.59;5056339;27;99195;-81
2021/04/06 01:33:12;;;;;;;;;;;;;;;4.72;50.14;100189.38;5056636;27;96656;-82
2021/04/06 01:35:38;;;;;;;;;;;;;;;4.29;51.33;100180.63;5056794;27;97003;-82
2021/04/06 01:38:04;;;;;;;;;;;;;;;4.71;50.50;100181.53;5043280;27;100256;-82
2021/04/06 01:40:31;;;;;;;;;;;;;;;4.79;50.18;100183.09;5057946;27;101029;-81
2021/04/06 01:42:57;;;;;;;;;;;;;;;4.35;51.93;100183.97;5054063;27;96774;-83
2021/04/06 01:45:23;;;;;;;;;;;;;;;4.76;51.16;100174.44;5055156;27;96829;-82
2021/04/06 01:47:49;;;;;;;;;;;;;;;4.52;50.89;100186.28;5053947;27;101354;-81
2021/04/06 01:50:15;;;;;;;;;;;;;;;4.66;51.10;100178.16;5059376;27;99620;-82
2021/04/06 01:52:42;;;;;;;;;;;;;;;4.77;50.08;100189.25;5060799;27;96935;-82
2021/04/06 01:55:14;;;;;;;;;;;;;;;4.53;50.74;100184.53;5061792;27;97252;-83
2021/04/06 01:57:45;;;;;;;;;;;;;;;4.87;50.63;100185.53;5050904;27;101269;-82
2021/04/06 02:00:21;;;;;;;;;;;;;;;4.67;51.11;100179.84;5061593;27;101164;-83
2021/04/06 02:02:47;;;;;;;;;;;;;;;4.37;51.54;100190.06;5064204;27;96820;-83
2021/04/06 02:05:14;;;;;;;;;;;;;;;4.69;50.22;100193.78;5058814;27;96808;-81
2021/04/06 02:07:43;;;;;;;;;;;;;;;4.65;50.66;100194.75;5046711;27;97848;-82
2021/04/06 02:10:09;;;;;;;;;;;;;;;4.63;50.78;100200.00;5064441;27;101580;-82
2021/04/06 02:12:37;;;;;;;;;;;;;;;4.48;50.77;100196.81;5065994;27;96443;-81
2021/04/06 02:15:08;;;;;;;;;;;;;;;4.44;50.95;100203.88;5057430;27;96952;-82
2021/04/06 02:17:45;;;;;;;;;;;;;;;4.69;50.48;100204.25;5087282;27;99022;-82
2021/04/06 02:20:18;;;;;;;;;;;;;;;4.78;49.77;100202.31;5060550;27;98498;-82
2021/04/06 02:22:53;;;;;;;;;;;;;;;4.38;50.91;100207.47;5059903;27;96896;-82
2021/04/06 02:25:19;;;;;;;;;;;;;;;4.37;52.05;100212.72;5045545;27;96923;-82
2021/04/06 02:27:45;;;;;;;;;;;;;;;4.72;50.67;100214.69;5050877;27;101276;-82
2021/04/06 02:30:12;;;;;;;;;;;;;;;4.67;50.67;100212.13;5048470;27;101559;-82
2021/04/06 02:32:38;;;;;;;;;;;;;;;4.61;50.31;100214.00;5064014;27;96884;-82
2021/04/06 02:35:05;;;;;;;;;;;;;;;4.19;51.76;100205.22;5067292;27;96802;-81
2021/04/06 02:37:32;;;;;;;;;;;;;;;4.22;51.73;100211.25;5055130;27;101676;-83
2021/04/06 02:39:58;;;;;;;;;;;;;;;4.29;51.18;100205.03;5049647;27;100675;-83
2021/04/06 02:42:26;;;;;;;;;;;;;;;4.75;50.66;100204.13;5054907;27;97126;-82
2021/04/06 02:44:56;;;;;;;;;;;;;;;4.45;51.16;100203.00;5063293;27;96748;-81
2021/04/06 02:47:24;;;;;;;;;;;;;;;4.40;51.36;100204.81;5058848;27;98184;-81
2021/04/06 02:49:50;;;;;;;;;;;;;;;4.57;50.94;100209.75;5061777;27;99228;-82
2021/04/06 02:52:16;;;;;;;;;;;;;;;4.00;52.72;100209.94;5060897;27;96843;-81
2021/04/06 02:54:43;;;;;;;;;;;;;;;4.15;52.46;100214.88;5059862;27;97062;-81
2021/04/06 02:57:21;;;;;;;;;;;;;;;4.41;52.13;100214.38;5051997;27;99870;-82
2021/04/06 02:59:47;;;;;;;;;;;;;;;4.16;52.51;100211.38;5049550;27;100996;-82
2021/04/06 03:02:13;;;;;;;;;;;;;;;4.37;51.40;100218.81;5060059;27;97496;-82
2021/04/06 03:04:41;;;;;;;;;;;;;;;4.76;50.75;100216.31;5056769;27;98495;-82
2021/04/06 03:07:15;;;;;;;;;;;;;;;4.56;51.12;100221.94;5054040;27;98196;-81
2021/04/06 03:09:48;;;;;;;;;;;;;;;4.38;51.53;100219.69;5055480;27;98097;-81
2021/04/06 03:12:16;;;;;;;;;;;;;;;4.19;52.70;100213.94;5057064;27;96987;-84
2021/04/06 03:14:42;;;;;;;;;;;;;;;4.22;52.00;100213.00;5057491;27;97051;-82
2021/04/06 03:17:08;;;;;;;;;;;;;;;4.65;51.11;100219.16;5048140;27;99323;-82
2021/04/06 03:19:34;;;;;;;;;;;;;;;3.94;52.86;100210.88;5054552;27;101316;-82
2021/04/06 03:22:01;;;;;;;;;;;;;;;4.20;52.65;100210.41;5047987;27;96628;-82
2021/04/06 03:24:28;;;;;;;;;;;;;;;4.38;51.84;100217.06;5059696;27;96877;-83
2021/04/06 03:26:56;;;;;;;;;;;;;;;4.28;52.56;100210.28;5056153;27;101213;-83
2021/04/06 03:29:22;;;;;;;;;;;;;;;4.36;52.09;100200.53;5058366;27;98829;-82
2021/04/06 03:31:48;;;;;;;;;;;;;;;4.11;53.14;100196.66;5059422;27;96780;-83
2021/04/06 03:34:14;;;;;;;;;;;;;;;4.12;52.98;100198.38;5061155;27;97164;-82
2021/04/06 03:36:41;;;;;;;;;;;;;;;4.26;52.37;100199.88;5058108;27;99191;-81
2021/04/06 03:39:08;;;;;;;;;;;;;;;4.51;51.46;100204.63;5050287;27;101036;-82
2021/04/06 03:41:34;;;;;;;;;;;;;;;4.53;51.87;100208.09;5044027;27;96932;-81
2021/04/06 03:44:04;;;;;;;;;;;;;;;4.45;51.80;100210.84;5061804;27;96855;-81
2021/04/06 03:46:30;;;;;;;;;;;;;;;4.45;51.56;100200.38;5048269;27;98259;-82
2021/04/06 03:49:11;;;;;;;;;;;;;;;3.96;53.14;100206.50;5057778;27;101391;-82
2021/04/06 03:51:37;;;;;;;;;;;;;;;4.57;51.43;100207.13;5060800;27;97174;-81
2021/04/06 03:54:03;;;;;;;;;;;;;;;4.43;51.85;100210.00;5064025;27;96725;-82
2021/04/06 03:56:32;;;;;;;;;;;;;;;4.14;52.68;100202.69;5057931;27;97846;-83
2021/04/06 03:58:59;;;;;;;;;;;;;;;4.13;52.54;100200.97;5054277;27;102083;-84
2021/04/06 04:01:25;;;;;;;;;;;;;;;4.02;52.97;100200.28;5060108;27;96721;-83
2021/04/06 04:03:54;;;;;;;;;;;;;;;4.15;52.69;100203.53;5062716;27;97022;-82
2021/04/06 04:06:24;;;;;;;;;;;;;;;4.13;53.18;100200.13;5065098;27;98417;-82
2021/04/06 04:08:50;;;;;;;;;;;;;;;4.51;51.77;100199.38;5073141;27;99817;-79
2021/04/06 04:11:16;;;;;;;;;;;;;;;4.43;51.21;100198.66;5060341;27;96937;-81
2021/04/06 04:13:43;;;;;;;;;;;;;;;3.97;53.21;100196.91;5048156;27;97475;-81
2021/04/06 04:16:09;;;;;;;;;;;;;;;4.36;52.00;100204.03;5048342;27;100794;-81
2021/04/06 04:18:35;;;;;;;;;;;;;;;4.03;52.59;100199.41;5058064;27;97780;-82
2021/04/06 04:21:01;;;;;;;;;;;;;;;3.52;54.20;100195.91;5053695;27;96893;-82
2021/04/06 04:23:27;;;;;;;;;;;;;;;4.02;53.26;100197.66;5055642;27;96837;-83
2021/04/06 04:25:53;;;;;;;;;;;;;;;3.46;55.18;100194.25;5049068;27;101149;-81
2021/04/06 04:28:19;;;;;;;;;;;;;;;3.59;54.21;100193.19;5046895;27;100505;-82
2021/04/06 04:30:49;;;;;;;;;;;;;;;3.87;53.66;100192.72;5060622;27;96645;-81
2021/04/06 04:33:15;;;;;;;;;;;;;;;3.82;53.51;100190.16;5055227;27;98918;-82
2021/04/06 04:35:41;;;;;;;;;;;;;;;4.03;52.95;100188.94;5055358;27;98423;-82
2021/04/06 04:38:07;;;;;;;;;;;;;;;4.04;53.10;100180.22;5056122;27;98110;-81
2021/04/06 04:40:34;;;;;;;;;;;;;;;3.89;52.94;100183.94;5058230;27;97358;-82
2021/04/06 04:43:00;;;;;;;;;;;;;;;3.78;53.75;100190.25;5047621;27;96767;-83
2021/04/06 04:45:26;;;;;;;;;;;;;;;4.11;52.57;100189.69;5051840;27;98424;-81
2021/04/06 04:47:53;;;;;;;;;;;;;;;4.33;52.30;100187.53;5048353;27;98185;-82
2021/04/06 04:50:20;;;;;;;;;;;;;;;4.48;51.64;100191.59;5046681;27;97092;-81
2021/04/06 04:52:47;;;;;;;;;;;;;;;4.37;51.93;100184.81;5060220;27;96791;-84
2021/04/06 04:55:14;;;;;;;;;;;;;;;4.45;51.76;100191.66;5057743;27;101460;-82
2021/04/06 04:57:40;;;;;;;;;;;;;;;4.39;51.54;100185.66;5057462;27;100010;-83
2021/04/06 05:00:07;;;;;;;;;;;;;;;3.75;53.79;100188.53;5048094;27;97581;-81
2021/04/06 05:02:33;;;;;;;;;;;;;;;4.11;53.20;100189.69;5057183;27;96686;-81
2021/04/06 05:05:00;;;;;;;;;;;;;;;4.18;52.29;100191.28;5057231;27;97863;-83
2021/04/06 05:07:26;;;;;;;;;;;;;;;4.35;51.92;100193.56;5050086;27;98806;-82
2021/04/06 05:09:52;;;;;;;;;;;;;;;4.37;51.98;100194.41;5060062;27;96694;-81
2021/04/06 05:12:18;;;;;;;;;;;;;;;4.71;51.04;100189.38;5060252;27;96957;-82
2021/04/06 05:14:46;;;;;;;;;;;;;;;4.77;50.39;100181.41;5068966;27;99100;-82
2021/04/06 05:17:12;;;;;;;;;;;;;;;4.66;50.31;100188.63;5053870;27;98681;-83
2021/04/06 05:19:38;;;;;;;;;;;;;;;4.47;50.84;100189.84;5063779;27;96594;-82
2021/04/06 05:22:06;;;;;;;;;;;;;;;4.79;50.35;100185.69;5055252;27;97352;-80
2021/04/06 05:24:32;;;;;;;;;;;;;;;4.94;50.01;100186.28;5075732;27;99109;-82
2021/04/06 05:26:58;;;;;;;;;;;;;;;4.55;51.35;100201.03;5064352;27;99532;-81
2021/04/06 05:29:24;;;;;;;;;;;;;;;4.62;51.13;100200.03;5068866;27;96751;-83
2021/04/06 05:31:50;;;;;;;;;;;;;;;4.64;50.78;100191.28;5060449;27;97383;-82
2021/04/06 05:34:16;;;;;;;;;;;;;;;5.08;49.84;100192.94;5062462;27;96915;-83
2021/04/06 05:36:42;;;;;;;;;;;;;;;4.77;49.97;100187.50;5065338;27;96777;-80
2021/04/06 05:39:09;;;;;;;;;;;;;;;4.60;50.95;100188.72;5063490;27;96765;-81
2021/04/06 05:41:35;;;;;;;;;;;;;;;5.15;49.72;100199.78;5054051;27;97406;-81
2021/04/06 05:44:04;;;;;;;;;;;;;;;4.97;50.27;100196.69;5061658;27;98169;-81
2021/04/06 05:46:32;;;;;;;;;;;;;;;4.96;49.86;100190.59;5066139;27;101494;-82
2021/04/06 05:49:01;;;;;;;;;;;;;;;4.98;50.00;100191.44;5065221;27;96619;-82
2021/04/06 05:51:28;;;;;;;;;;;;;;;4.95;49.72;100188.88;5052606;27;96866;-82
2021/04/06 05:53:54;;;;;;;;;;;;;;;5.09;49.46;100199.91;5064211;27;97049;-82
2021/04/06 05:56:21;;;;;;;;;;;;;;;5.41;49.03;100191.31;5061542;27;97648;-82
2021/04/06 05:58:47;;;;;;;;;;;;;;;5.69;48.35;100195.91;5050243;27;96753;-82
2021/04/06 06:01:13;;;;;;;;;;;;;;;5.66;48.53;100183.72;5061299;27;96858;-80
2021/04/06 06:03:40;;;;;;;;;;;;;;;5.65;48.52;100189.88;5071788;27;98186;-82
2021/04/06 06:06:06;;;;;;;;;;;;;;;5.60;48.53;100183.88;5055445;27;97936;-81
2021/04/06 06:08:33;;;;;;;;;;;;;;;5.61;48.40;100193.47;5063019;27;96636;-83
2021/04/06 06:11:03;;;;;;;;;;;;;;;5.58;48.25;100186.53;5063022;27;96999;-82
2021/04/06 06:13:35;;;;;;;;;;;;;;;6.32;46.51;100182.94;5066305;27;97021;-82
2021/04/06 06:16:13;;;;;;;;;;;;;;;5.97;47.08;100197.81;5063466;27;98274;-82
2021/04/06 06:18:53;;;;;;;;;;;;;;;6.31;46.68;100195.19;5065036;27;96706;-81
2021/04/06 06:21:19;;;;;;;;;;;;;;;6.28;46.78;100192.66;5066576;27;96695;-82
2021/04/06 06:23:46;;;;;;;;;;;;;;;6.03;47.16;100201.22;5068525;27;99863;-81
2021/04/06 06:26:13;;;;;;;;;;;;;;;6.51;46.63;100183.28;5068998;27;96880;-81
2021/04/06 06:28:40;;;;;;;;;;;;;;;6.44;46.64;100190.47;5064002;27;96818;-82
2021/04/06 06:31:08;;;;;;;;;;;;;;;6.59;46.29;100183.94;5059847;27;98034;-80
2021/04/06 06:33:36;;;;;;;;;;;;;;;6.52;46.08;100185.88;5060174;27;97748;-82
2021/04/06 06:36:03;;;;;;;;;;;;;;;6.66;45.98;100183.72;5065760;27;97667;-82
2021/04/06 06:38:33;;;;;;;;;;;;;;;6.51;45.61;100188.53;5067724;27;97431;-82
2021/04/06 06:41:11;;;;;;;;;;;;;;;6.69;45.76;100188.03;5066691;27;96839;-82
2021/04/06 06:43:38;;;;;;;;;;;;;;;7.08;45.08;100176.38;5072489;27;98331;-82
2021/04/06 06:46:16;;;;;;;;;;;;;;;7.41;44.32;100179.72;5064233;27;100786;-84
2021/04/06 06:48:53;;;;;;;;;;;;;;;7.20;44.09;100188.28;5071119;27;97124;-83
2021/04/06 06:51:22;;;;;;;;;;;;;;;7.59;43.67;100180.91;5062635;27;96874;-82
2021/04/06 06:53:50;;;;;;;;;;;;;;;7.39;44.29;100181.53;5059655;27;100608;-81
2021/04/06 06:56:18;;;;;;;;;;;;;;;6.79;45.64;100179.00;5065559;27;99850;-82
2021/04/06 06:58:44;;;;;;;;;;;;;;;6.74;46.08;100176.50;5066197;27;96939;-82
2021/04/06 07:01:22;;;;;;;;;;;;;;;6.51;46.53;100168.41;5073148;27;96456;-81
2021/04/06 07:04:00;;;;;;;;;;;;;;;6.85;46.21;100177.94;5065605;27;100023;-81
2021/04/06 07:06:26;;;;;;;;;;;;;;;7.02;45.36;100166.03;5237218;22;99961;-81
2021/04/06 07:08:52;;;;;;;;;;;;;;;7.63;44.15;100174.63;5041308;27;97090;-82
2021/04/06 07:11:18;;;;;;;;;;;;;;;7.08;45.04;100167.63;5034423;27;96667;-81
2021/04/06 07:13:45;;;;;;;;;;;;;;;7.00;45.52;100172.25;5046770;27;98471;-82
2021/04/06 07:16:14;;;;;;;;;;;;;;;7.13;45.47;100168.34;5044013;27;99134;-84
2021/04/06 07:18:42;;;;;;;;;;;;;;;7.56;44.64;100168.69;5041769;27;96778;-83
2021/04/06 07:21:10;;;;;;;;;;;;;;;7.26;45.44;100153.91;5038595;28;97188;-83
2021/04/06 07:23:37;;;;;;;;;;;;;;;7.17;45.34;100160.31;5045349;28;99316;-83
2021/04/06 07:26:07;;;;;;;;;;;;;;;6.90;46.57;100160.28;5030908;27;100531;-81
2021/04/06 07:28:35;;;;;;;;;;;;;;;7.32;45.46;100160.75;5030173;27;96646;-82
2021/04/06 07:31:04;;;;;;;;;;;;;;;7.27;45.25;100160.91;5044482;28;97050;-83
2021/04/06 07:33:34;;;;;;;;;;;;;;;6.54;47.10;100157.84;5052068;27;98085;-81
2021/04/06 07:36:03;;;;;;;;;;;;;;;6.84;46.54;100176.22;5050690;27;97758;-82
2021/04/06 07:38:33;;;;;;;;;;;;;;;7.28;45.84;100164.38;5051778;27;97202;-82
2021/04/06 07:40:59;;;;;;;;;;;;;;;7.27;45.87;100162.66;5047034;28;96881;-82
2021/04/06 07:43:26;;;;;;;;;;;;;;;7.45;45.55;100162.94;5048169;28;98126;-85
2021/04/06 07:45:55;;;;;;;;;;;;;;;6.94;46.57;100160.16;5066618;27;102114;-82
2021/04/06 07:48:45;;;;;;;;;;;;;;;7.21;46.34;100158.47;5059726;27;96675;-83
2021/04/06 07:51:17;;;;;;;;;;;;;;;7.71;45.30;100164.72;5031352;27;97037;-84
2021/04/06 07:54:00;;;;;;;;;;;;;;;8.09;44.43;100173.94;5049148;27;99502;-83
2021/04/06 07:56:48;;;;;;;;;;;;;;;8.08;44.05;100159.06;5051608;28;98397;-82
2021/04/06 07:59:29;;;;;;;;;;;;;;;7.79;44.87;100161.84;5041382;28;96551;-82
2021/04/06 08:02:10;;;;;;;;;;;;;;;7.84;45.09;100160.78;5042116;28;96892;-82
2021/04/06 08:04:51;;;;;;;;;;;;;;;8.04;44.40;100159.25;5047185;27;99928;-82
2021/04/06 08:07:23;;;;;;;;;;;;;;;8.07;44.51;100167.91;5041063;27;101790;-84
2021/04/06 08:09:52;;;;;;;;;;;;;;;7.84;44.84;100166.03;5044547;28;96683;-83
2021/04/06 08:12:19;;;;;;;;;;;;;;;8.33;43.46;100161.75;5045152;27;96890;-83
2021/04/06 08:14:46;;;;;;;;;;;;;;;8.06;44.26;100170.56;5059518;27;98923;-83
2021/04/06 08:17:33;;;;;;;;;;;;;;;7.89;44.42;100164.09;5041074;27;98277;-84
2021/04/06 08:20:05;;;;;;;;;;;;;;;8.34;44.24;100173.97;5044406;28;96727;-83
2021/04/06 08:22:49;;;;;;;;;;;;;;;8.62;42.89;100176.50;5045548;28;96906;-85
2021/04/06 08:25:34;;;;;;;;;;;;;;;8.16;43.97;100171.97;5039508;27;96857;-83
2021/04/06 08:28:02;;;;;;;;;;;;;;;8.14;44.05;100165.91;5040515;28;99765;-83
2021/04/06 08:30:31;;;;;;;;;;;;;;;8.57;43.46;100167.91;5031079;27;96662;-83
2021/04/06 08:33:30;;;;;;;;;;;;;;;8.29;43.56;100168.00;5039315;27;96719;-83
2021/04/06 08:36:04;;;;;;;;;;;;;;;8.96;42.50;100176.97;5041129;27;102138;-84
2021/04/06 08:41:37;;;;;;;;;;;;;;;8.44;43.02;100188.56;5045266;27;96696;-86
2021/04/06 08:44:09;;;;;;;;;;;;;;;8.29;43.58;100182.00;5050936;27;98488;-83
2021/04/06 08:46:49;;;;;;;;;;;;;;;8.57;43.35;100183.72;5042671;27;98936;-82
2021/04/06 08:49:18;;;;;;;;;;;;;;;8.16;44.27;100188.63;5047466;27;98740;-83
2021/04/06 08:51:55;;;;;;;;;;;;;;;8.42;43.76;100187.75;5040397;27;96927;-84
2021/04/06 08:54:22;;;;;;;;;;;;;;;8.79;42.94;100189.91;5044724;27;97295;-84
2021/04/06 08:56:50;;;;;;;;;;;;;;;8.59;43.41;100197.69;5035263;27;102115;-83
2021/04/06 08:59:22;;;;;;;;;;;;;;;8.63;43.38;100196.66;5034605;27;96922;-82
2021/04/06 09:01:53;;;;;;;;;;;;;;;8.55;43.64;100204.81;5039289;27;96847;-83
2021/04/06 09:04:20;;;;;;;;;;;;;;;8.85;43.03;100205.50;5033147;27;97038;-83
2021/04/06 09:06:47;;;;;;;;;;;;;;;8.74;43.51;100205.00;5030586;27;100156;-81
2021/04/06 09:09:13;;;;;;;;;;;;;;;8.70;43.34;100209.53;5034971;28;99388;-82
2021/04/06 09:11:40;;;;;;;;;;;;;;;9.20;42.43;100207.66;5039046;27;97330;-82
2021/04/06 09:14:06;;;;;;;;;;;;;;;8.46;43.31;100204.31;5039736;27;98209;-82
2021/04/06 09:16:34;;;;;;;;;;;;;;;9.04;42.80;100201.25;5037681;27;99185;-81
2021/04/06 09:19:03;;;;;;;;;;;;;;;8.86;42.56;100193.19;5034106;27;98477;-81
2021/04/06 09:21:30;;;;;;;;;;;;;;;9.36;41.91;100200.03;5030990;27;97631;-82
2021/04/06 09:23:57;;;;;;;;;;;;;;;8.65;43.45;100193.06;5032188;27;96830;-82
2021/04/06 09:26:24;;;;;;;;;;;;;;;9.26;41.70;100190.72;5036280;27;99588;-82
2021/04/06 09:28:59;;;;;;;;;;;;;;;9.30;41.90;100192.34;5035219;27;102098;-81
2021/04/06 09:31:26;;;;;;;;;;;;;;;9.52;40.98;100189.69;5038478;27;96876;-83
2021/04/06 09:34:00;;;;;;;;;;;;;;;9.51;41.32;100188.00;5038670;27;96967;-81
2021/04/06 09:36:27;;;;;;;;;;;;;;;9.82;40.99;100193.75;5036967;27;100218;-84
2021/04/06 09:38:54;;;;;;;;;;;;;;;10.00;40.28;100181.56;5037003;27;99156;-82
2021/04/06 09:41:26;;;;;;;;;;;;;;;9.72;40.71;100183.63;5039201;27;96770;-82
2021/04/06 09:43:53;;;;;;;;;;;;;;;10.04;40.08;100184.97;5031525;27;96736;-84
2021/04/06 09:46:21;;;;;;;;;;;;;;;10.48;38.64;100178.66;5039267;27;101119;-81
2021/04/06 09:48:58;;;;;;;;;;;;;;;11.15;37.49;100178.25;5035797;27;99726;-82
2021/04/06 09:51:24;;;;;;;;;;;;;;;11.54;36.44;100172.84;5046341;27;96869;-82
2021/04/06 09:53:50;;;;;;;;;;;;;;;11.67;36.07;100173.09;5049045;27;97713;-82
2021/04/06 09:56:16;;;;;;;;;;;;;;;11.19;36.55;100166.56;5042380;27;100049;-83
2021/04/06 09:58:45;;;;;;;;;;;;;;;9.42;39.05;100172.53;5050764;27;96787;-81
2021/04/06 10:01:28;;;;;;;;;;;;;;;10.45;37.95;100170.84;5048837;28;96960;-83
2021/04/06 10:03:56;;;;;;;;;;;;;;;10.41;38.07;100163.13;5044731;27;96719;-83
2021/04/06 10:06:45;;;;;;;;;;;;;;;10.63;36.96;100166.56;5049306;27;100126;-82
2021/04/06 10:09:22;;;;;;;;;;;;;;;9.76;38.21;100156.22;5046873;27;100414;-83
2021/04/06 10:11:49;;;;;;;;;;;;;;;10.12;37.92;100151.16;5046307;28;96641;-83
2021/04/06 10:14:17;;;;;;;;;;;;;;;11.11;36.83;100155.50;5044738;27;97393;-82
2021/04/06 10:16:44;;;;;;;;;;;;;;;10.85;36.59;100140.00;5042064;27;100713;-83
2021/04/06 10:19:22;;;;;;;;;;;;;;;10.77;37.05;100154.41;5037867;27;97618;-83
2021/04/06 10:22:01;;;;;;;;;;;;;;;10.67;37.12;100150.47;5048623;27;96895;-81
2021/04/06 10:24:47;;;;;;;;;;;;;;;9.56;38.51;100143.84;5040535;27;97159;-83
2021/04/06 10:30:33;;;;;;;;;;;;;;;9.52;39.22;100151.00;5016590;27;96905;-81
2021/04/06 10:33:04;;;;;;;;;;;;;;;9.73;39.43;100144.00;5046314;27;97037;-83
2021/04/06 10:35:33;;;;;;;;;;;;;;;9.54;40.43;100149.19;5038849;27;96882;-83
2021/04/06 10:38:00;;;;;;;;;;;;;;;9.47;40.32;100133.66;5040725;27;99238;-81
2021/04/06 10:40:28;;;;;;;;;;;;;;;10.34;38.90;100131.72;5039835;27;97765;-81
2021/04/06 10:42:55;;;;;;;;;;;;;;;10.78;38.52;100123.56;5038174;27;96873;-81
2021/04/06 10:45:23;;;;;;;;;;;;;;;9.86;39.14;100120.59;5043504;27;96842;-81
2021/04/06 10:47:50;;;;;;;;;;;;;;;9.65;40.42;100121.50;5035813;27;98963;-82
2021/04/06 10:50:16;;;;;;;;;;;;;;;9.92;39.74;100115.91;5039116;27;98886;-81
2021/04/06 10:52:43;;;;;;;;;;;;;;;9.56;39.93;100118.31;5037154;27;96775;-81
2021/04/06 10:55:10;;;;;;;;;;;;;;;9.29;40.61;100121.22;5038433;27;97411;-82
2021/04/06 10:57:37;;;;;;;;;;;;;;;9.40;39.69;100113.72;5034032;27;98198;-83
2021/04/06 11:00:23;;;;;;;;;;;;;;;9.48;40.23;100111.63;5033926;28;98074;-83
2021/04/06 11:02:49;;;;;;;;;;;;;;;10.17;39.59;100101.72;5033242;27;97268;-84
2021/04/06 11:05:28;;;;;;;;;;;;;;;10.66;38.63;100098.56;5043590;27;97101;-83
2021/04/06 11:07:55;;;;;;;;;;;;;;;10.00;38.24;100091.84;5039183;27;100057;-83
2021/04/06 11:10:24;;;;;;;;;;;;;;;10.39;37.42;100099.81;5042214;27;101879;-83
2021/04/06 11:12:50;;;;;;;;;;;;;;;10.58;37.74;100087.47;5042977;27;96866;-81
2021/04/06 11:15:16;;;;;;;;;;;;;;;11.15;36.77;100083.06;5037469;27;98200;-83
2021/04/06 11:17:45;;;;;;;;;;;;;;;10.31;37.90;100075.53;5043217;27;97905;-82
2021/04/06 11:20:14;;;;;;;;;;;;;;;10.77;36.22;100069.84;5044181;27;101671;-82
2021/04/06 11:22:41;;;;;;;;;;;;;;;12.19;33.53;100068.09;5048162;28;96925;-83
2021/04/06 11:25:10;;;;;;;;;;;;;;;12.08;32.64;100063.34;5044724;27;97086;-84
2021/04/06 11:27:36;;;;;;;;;;;;;;;11.57;32.00;100065.03;5035590;28;100964;-83
2021/04/06 11:30:03;;;;;;;;;;;;;;;11.52;32.64;100061.78;5039173;27;100916;-82
2021/04/06 11:32:29;;;;;;;;;;;;;;;11.00;32.42;100073.19;5035834;27;96684;-81
2021/04/06 11:34:55;;;;;;;;;;;;;;;10.75;33.51;100066.44;5046919;27;96854;-81
2021/04/06 11:37:21;;;;;;;;;;;;;;;10.76;33.95;100076.06;5038902;27;99805;-80
2021/04/06 11:39:48;;;;;;;;;;;;;;;11.38;33.28;100071.31;5028705;28;100013;-81
2021/04/06 11:42:16;;;;;;;;;;;;;;;10.07;36.07;100092.41;5035334;27;97007;-83
2021/04/06 11:44:42;;;;;;;;;;;;;;;10.21;37.90;100100.63;5044151;27;97696;-80
2021/04/06 11:47:08;;;;;;;;;;;;;;;9.84;39.04;100099.56;5041132;27;99218;-81
2021/04/06 11:49:36;;;;;;;;;;;;;;;10.42;38.82;100086.47;5040445;27;100331;-80
2021/04/06 11:52:03;;;;;;;;;;;;;;;10.95;38.37;100085.78;5041535;27;96830;-81
2021/04/06 11:54:29;;;;;;;;;;;;;;;10.26;39.62;100082.78;5033172;27;97523;-79
2021/04/06 11:56:55;;;;;;;;;;;;;;;9.83;40.41;100078.53;5034221;27;97025;-81
2021/04/06 11:59:22;;;;;;;;;;;;;;;9.72;40.11;100086.00;5039146;27;98219;-81
2021/04/06 12:01:48;;;;;;;;;;;;;;;10.29;37.75;100075.63;5034155;27;97108;-81
2021/04/06 12:04:15;;;;;;;;;;;;;;;10.40;37.52;100075.13;5034391;27;97066;-82
2021/04/06 12:06:41;;;;;;;;;;;;;;;10.93;37.19;100063.84;5034808;27;98761;-80
2021/04/06 12:09:08;;;;;;;;;;;;;;;10.34;37.58;100056.91;5033534;28;98089;-82
2021/04/06 12:11:34;;;;;;;;;;;;;;;10.43;37.07;100053.88;5037310;27;96833;-80
2021/04/06 12:14:01;;;;;;;;;;;;;;;10.36;36.84;100048.00;5035813;28;96867;-80
2021/04/06 12:16:28;;;;;;;;;;;;;;;10.58;35.04;100036.44;5048570;27;97668;-80
2021/04/06 12:18:54;;;;;;;;;;;;;;;11.31;35.36;100041.69;5051140;27;100051;-82
2021/04/06 12:21:20;;;;;;;;;;;;;;;10.66;35.58;100039.56;5049478;27;96736;-80
2021/04/06 12:23:46;;;;;;;;;;;;;;;10.15;34.67;100042.78;5046535;27;96570;-82
2021/04/06 12:26:13;;;;;;;;;;;;;;;10.27;35.45;100029.06;5044226;27;100689;-82
2021/04/06 12:28:40;;;;;;;;;;;;;;;10.86;34.54;100038.63;5043838;28;97974;-81
2021/04/06 12:31:07;;;;;;;;;;;;;;;11.00;33.90;100018.53;5046844;28;96629;-82
2021/04/06 12:33:34;;;;;;;;;;;;;;;10.47;33.18;100022.88;5040454;27;96803;-82
2021/04/06 12:36:00;;;;;;;;;;;;;;;10.86;32.98;100026.28;5042162;28;99479;-82
2021/04/06 12:38:26;;;;;;;;;;;;;;;10.66;31.13;100019.28;5042683;28;99363;-81
2021/04/06 12:40:53;;;;;;;;;;;;;;;10.59;31.03;100017.88;5040090;27;96746;-84
2021/04/06 12:43:19;;;;;;;;;;;;;;;10.46;31.58;100021.16;5042864;27;97081;-82
2021/04/06 12:45:46;;;;;;;;;;;;;;;11.25;30.32;100007.59;5044259;27;97261;-81
2021/04/06 12:48:12;;;;;;;;;;;;;;;10.99;30.14;100011.53;5042432;27;100946;-84
2021/04/06 12:50:40;;;;;;;;;;;;;;;11.39;29.57;100005.13;5044193;27;96762;-83
2021/04/06 12:53:06;;;;;;;;;;;;;;;11.68;28.98;100011.59;5037013;27;97261;-83
2021/04/06 12:55:32;;;;;;;;;;;;;;;11.68;29.67;100011.59;5043127;28;100164;-83
2021/04/06 12:57:58;;;;;;;;;;;;;;;11.03;30.65;100009.59;5038771;28;97950;-82